sensor_id;sensor_type;location;lat;lon;timestamp;temperature;humidity
3156;DHT22;1588;50.892;7.082;2022-11-15T00:01:07;10.20;99.90
3156;DHT22;1588;50.892;7.082;2022-11-15T00:06:12;10.20;99.90
3156;DHT22;1588;50.892;7.082;2022-11-15T00:11:25;10.40;99.90
3156;DHT22;1588;50.892;7.082;2022-11-15T00:16:28;10.50;99.90
3156;DHT22;1588;50.892;7.082;2022-11-15T00:21:32;10.70;99.90
3156;DHT22;1588;50.892;7.082;2022-11-15T00:26:35;10.80;99.90
3156;DHT22;1588;50.892;7.082;2022-11-15T00:31:38;10.80;99.90
3156;DHT22;1588;50.892;7.082;2022-11-15T00:36:40;10.80;99.90
3156;DHT22;1588;50.892;7.082;2022-11-15T00:41:44;10.80;99.90
3156;DHT22;1588;50.892;7.082;2022-11-15T00:46:47;10.90;99.90
3156;DHT22;1588;50.892;7.082;2022-11-15T00:51:49;10.80;99.90
3156;DHT22;1588;50.892;7.082;2022-11-15T00:56:56;10.90;99.90
3156;DHT22;1588;50.892;7.082;2022-11-15T01:01:58;10.90;99.90
3156;DHT22;1588;50.892;7.082;2022-11-15T01:07:00;11.10;99.90
3156;DHT22;1588;50.892;7.082;2022-11-15T01:12:05;11.20;99.90
3156;DHT22;1588;50.892;7.082;2022-11-15T01:17:09;11.30;99.90
3156;DHT22;1588;50.892;7.082;2022-11-15T01:22:11;11.40;99.90
3156;DHT22;1588;50.892;7.082;2022-11-15T01:27:15;11.60;99.90
3156;DHT22;1588;50.892;7.082;2022-11-15T01:32:17;11.60;99.90
3156;DHT22;1588;50.892;7.082;2022-11-15T01:37:19;11.50;99.90
3156;DHT22;1588;50.892;7.082;2022-11-15T01:42:23;11.50;99.90
3156;DHT22;1588;50.892;7.082;2022-11-15T01:47:28;11.50;99.90
3156;DHT22;1588;50.892;7.082;2022-11-15T01:52:34;11.40;99.90
3156;DHT22;1588;50.892;7.082;2022-11-15T01:57:40;11.40;99.90
3156;DHT22;1588;50.892;7.082;2022-11-15T02:02:43;11.40;99.90
3156;DHT22;1588;50.892;7.082;2022-11-15T02:07:47;11.30;99.90
3156;DHT22;1588;50.892;7.082;2022-11-15T02:12:53;11.30;99.90
3156;DHT22;1588;50.892;7.082;2022-11-15T02:18:09;11.20;99.90
3156;DHT22;1588;50.892;7.082;2022-11-15T02:23:41;11.20;99.90
3156;DHT22;1588;50.892;7.082;2022-11-15T02:28:55;11.00;99.90
3156;DHT22;1588;50.892;7.082;2022-11-15T02:34:06;11.20;99.90
3156;DHT22;1588;50.892;7.082;2022-11-15T02:39:25;11.40;99.90
3156;DHT22;1588;50.892;7.082;2022-11-15T02:44:33;11.50;99.90
3156;DHT22;1588;50.892;7.082;2022-11-15T02:49:40;11.70;99.90
3156;DHT22;1588;50.892;7.082;2022-11-15T02:54:53;11.80;99.90
3156;DHT22;1588;50.892;7.082;2022-11-15T03:00:05;11.80;99.90
3156;DHT22;1588;50.892;7.082;2022-11-15T03:05:18;11.70;99.90
3156;DHT22;1588;50.892;7.082;2022-11-15T03:10:25;11.90;99.90
3156;DHT22;1588;50.892;7.082;2022-11-15T03:15:31;11.90;99.90
3156;DHT22;1588;50.892;7.082;2022-11-15T03:20:35;11.80;99.90
3156;DHT22;1588;50.892;7.082;2022-11-15T03:25:41;11.90;99.90
3156;DHT22;1588;50.892;7.082;2022-11-15T03:30:45;11.90;99.90
3156;DHT22;1588;50.892;7.082;2022-11-15T03:35:52;11.90;99.90
3156;DHT22;1588;50.892;7.082;2022-11-15T03:40:59;11.80;99.90
3156;DHT22;1588;50.892;7.082;2022-11-15T03:46:12;11.90;99.90
3156;DHT22;1588;50.892;7.082;2022-11-15T03:51:16;11.90;99.90
3156;DHT22;1588;50.892;7.082;2022-11-15T03:56:19;12.00;99.90
3156;DHT22;1588;50.892;7.082;2022-11-15T04:01:21;11.90;99.90
3156;DHT22;1588;50.892;7.082;2022-11-15T04:06:25;11.90;99.90
3156;DHT22;1588;50.892;7.082;2022-11-15T04:11:27;12.00;99.90
3156;DHT22;1588;50.892;7.082;2022-11-15T04:16:29;11.90;99.90
3156;DHT22;1588;50.892;7.082;2022-11-15T04:21:33;12.00;99.90
3156;DHT22;1588;50.892;7.082;2022-11-15T04:26:53;12.10;99.90
3156;DHT22;1588;50.892;7.082;2022-11-15T04:31:55;12.20;99.90
3156;DHT22;1588;50.892;7.082;2022-11-15T04:36:59;12.20;99.90
3156;DHT22;1588;50.892;7.082;2022-11-15T04:42:17;12.00;99.90
3156;DHT22;1588;50.892;7.082;2022-11-15T04:47:19;12.10;99.90
3156;DHT22;1588;50.892;7.082;2022-11-15T04:52:23;12.10;99.90
3156;DHT22;1588;50.892;7.082;2022-11-15T04:57:25;12.00;99.90
3156;DHT22;1588;50.892;7.082;2022-11-15T05:02:28;11.90;99.90
3156;DHT22;1588;50.892;7.082;2022-11-15T05:07:49;11.90;99.90
3156;DHT22;1588;50.892;7.082;2022-11-15T05:13:03;11.90;99.90
3156;DHT22;1588;50.892;7.082;2022-11-15T05:18:07;11.90;99.90
3156;DHT22;1588;50.892;7.082;2022-11-15T05:23:11;11.80;99.90
3156;DHT22;1588;50.892;7.082;2022-11-15T05:28:13;11.70;99.90
3156;DHT22;1588;50.892;7.082;2022-11-15T05:33:18;11.70;99.90
3156;DHT22;1588;50.892;7.082;2022-11-15T05:38:23;11.80;99.90
3156;DHT22;1588;50.892;7.082;2022-11-15T05:43:26;11.70;99.90
3156;DHT22;1588;50.892;7.082;2022-11-15T05:48:28;11.70;99.90
3156;DHT22;1588;50.892;7.082;2022-11-15T05:53:33;11.80;99.90
3156;DHT22;1588;50.892;7.082;2022-11-15T05:58:37;11.70;99.90
3156;DHT22;1588;50.892;7.082;2022-11-15T06:03:39;11.60;99.90
3156;DHT22;1588;50.892;7.082;2022-11-15T06:08:43;11.50;99.90
3156;DHT22;1588;50.892;7.082;2022-11-15T06:13:45;11.50;99.90
3156;DHT22;1588;50.892;7.082;2022-11-15T06:18:48;11.30;99.90
3156;DHT22;1588;50.892;7.082;2022-11-15T06:23:52;11.10;99.90
3156;DHT22;1588;50.892;7.082;2022-11-15T06:28:54;10.90;99.90
3156;DHT22;1588;50.892;7.082;2022-11-15T06:33:56;10.70;99.90
3156;DHT22;1588;50.892;7.082;2022-11-15T06:39:00;10.70;99.90
3156;DHT22;1588;50.892;7.082;2022-11-15T06:44:03;10.70;99.90
3156;DHT22;1588;50.892;7.082;2022-11-15T06:49:05;10.80;99.90
3156;DHT22;1588;50.892;7.082;2022-11-15T06:54:09;10.80;99.90
3156;DHT22;1588;50.892;7.082;2022-11-15T06:59:11;10.60;99.90
3156;DHT22;1588;50.892;7.082;2022-11-15T07:04:14;10.60;99.90
3156;DHT22;1588;50.892;7.082;2022-11-15T07:09:18;10.70;99.90
3156;DHT22;1588;50.892;7.082;2022-11-15T07:14:20;10.70;99.90
3156;DHT22;1588;50.892;7.082;2022-11-15T07:19:22;10.60;99.90
3156;DHT22;1588;50.892;7.082;2022-11-15T07:24:26;10.60;99.90
3156;DHT22;1588;50.892;7.082;2022-11-15T07:29:28;10.60;99.90
3156;DHT22;1588;50.892;7.082;2022-11-15T07:34:31;10.70;99.90
3156;DHT22;1588;50.892;7.082;2022-11-15T07:39:35;10.70;99.90
3156;DHT22;1588;50.892;7.082;2022-11-15T07:44:37;10.80;99.90
3156;DHT22;1588;50.892;7.082;2022-11-15T07:49:39;10.80;99.90
3156;DHT22;1588;50.892;7.082;2022-11-15T07:54:43;10.90;99.90
3156;DHT22;1588;50.892;7.082;2022-11-15T07:59:46;11.30;99.90
3156;DHT22;1588;50.892;7.082;2022-11-15T08:04:49;11.70;99.90
3156;DHT22;1588;50.892;7.082;2022-11-15T08:09:53;11.80;99.90
3156;DHT22;1588;50.892;7.082;2022-11-15T08:14:56;11.90;99.90
3156;DHT22;1588;50.892;7.082;2022-11-15T08:20:00;12.10;99.90
3156;DHT22;1588;50.892;7.082;2022-11-15T08:25:06;12.20;99.90
3156;DHT22;1588;50.892;7.082;2022-11-15T08:30:09;12.10;99.90
3156;DHT22;1588;50.892;7.082;2022-11-15T08:35:12;12.10;99.90
3156;DHT22;1588;50.892;7.082;2022-11-15T08:40:20;12.10;99.90
3156;DHT22;1588;50.892;7.082;2022-11-15T08:45:23;12.00;99.90
3156;DHT22;1588;50.892;7.082;2022-11-15T08:50:25;12.20;99.90
3156;DHT22;1588;50.892;7.082;2022-11-15T08:55:29;12.40;99.90
3156;DHT22;1588;50.892;7.082;2022-11-15T09:00:31;12.60;99.90
3156;DHT22;1588;50.892;7.082;2022-11-15T09:05:44;12.80;99.90
3156;DHT22;1588;50.892;7.082;2022-11-15T09:11:20;12.90;99.90
3156;DHT22;1588;50.892;7.082;2022-11-15T09:16:26;13.20;99.90
3156;DHT22;1588;50.892;7.082;2022-11-15T09:21:29;13.30;99.90
3156;DHT22;1588;50.892;7.082;2022-11-15T09:26:38;13.30;99.90
3156;DHT22;1588;50.892;7.082;2022-11-15T09:32:16;13.30;99.90
3156;DHT22;1588;50.892;7.082;2022-11-15T09:37:38;13.30;99.90
3156;DHT22;1588;50.892;7.082;2022-11-15T09:42:59;13.50;99.90
3156;DHT22;1588;50.892;7.082;2022-11-15T09:53:42;13.90;99.90
3156;DHT22;1588;50.892;7.082;2022-11-15T09:58:54;14.00;99.90
3156;DHT22;1588;50.892;7.082;2022-11-15T10:04:00;14.00;99.90
3156;DHT22;1588;50.892;7.082;2022-11-15T10:09:06;13.90;99.90
3156;DHT22;1588;50.892;7.082;2022-11-15T10:14:17;13.90;99.90
3156;DHT22;1588;50.892;7.082;2022-11-15T10:19:26;13.90;99.90
3156;DHT22;1588;50.892;7.082;2022-11-15T10:24:35;13.70;99.90
3156;DHT22;1588;50.892;7.082;2022-11-15T10:29:45;13.70;99.90
3156;DHT22;1588;50.892;7.082;2022-11-15T10:34:54;13.90;99.90
3156;DHT22;1588;50.892;7.082;2022-11-15T10:40:04;13.80;99.90
3156;DHT22;1588;50.892;7.082;2022-11-15T10:45:24;13.90;99.90
3156;DHT22;1588;50.892;7.082;2022-11-15T10:50:28;13.90;99.90
3156;DHT22;1588;50.892;7.082;2022-11-15T10:55:33;14.00;99.90
3156;DHT22;1588;50.892;7.082;2022-11-15T11:00:47;14.00;99.90
3156;DHT22;1588;50.892;7.082;2022-11-15T11:06:03;14.00;99.90
3156;DHT22;1588;50.892;7.082;2022-11-15T11:11:09;13.90;99.90
3156;DHT22;1588;50.892;7.082;2022-11-15T11:16:49;14.00;99.90
3156;DHT22;1588;50.892;7.082;2022-11-15T11:22:16;14.00;99.90
3156;DHT22;1588;50.892;7.082;2022-11-15T11:27:33;14.00;99.90
3156;DHT22;1588;50.892;7.082;2022-11-15T11:32:55;14.00;99.90
3156;DHT22;1588;50.892;7.082;2022-11-15T11:38:18;14.10;99.90
3156;DHT22;1588;50.892;7.082;2022-11-15T11:43:33;14.20;99.90
3156;DHT22;1588;50.892;7.082;2022-11-15T11:48:43;14.20;99.90
3156;DHT22;1588;50.892;7.082;2022-11-15T11:53:50;14.10;99.90
3156;DHT22;1588;50.892;7.082;2022-11-15T11:59:18;14.10;99.90
3156;DHT22;1588;50.892;7.082;2022-11-15T12:04:30;14.30;99.90
3156;DHT22;1588;50.892;7.082;2022-11-15T12:10:11;14.40;99.90
3156;DHT22;1588;50.892;7.082;2022-11-15T12:16:06;14.40;99.90
3156;DHT22;1588;50.892;7.082;2022-11-15T12:21:34;14.40;99.90
3156;DHT22;1588;50.892;7.082;2022-11-15T12:27:02;14.40;99.90
3156;DHT22;1588;50.892;7.082;2022-11-15T12:32:25;14.40;99.90
3156;DHT22;1588;50.892;7.082;2022-11-15T12:37:50;14.50;99.90
3156;DHT22;1588;50.892;7.082;2022-11-15T12:48:48;14.70;99.90
3156;DHT22;1588;50.892;7.082;2022-11-15T12:59:49;14.70;99.90
3156;DHT22;1588;50.892;7.082;2022-11-15T13:10:36;14.50;99.90
3156;DHT22;1588;50.892;7.082;2022-11-15T13:15:55;14.50;99.90
3156;DHT22;1588;50.892;7.082;2022-11-15T13:21:02;14.40;99.90
3156;DHT22;1588;50.892;7.082;2022-11-15T13:26:32;14.40;99.90
3156;DHT22;1588;50.892;7.082;2022-11-15T13:31:38;14.40;99.90
3156;DHT22;1588;50.892;7.082;2022-11-15T13:36:42;14.40;99.90
3156;DHT22;1588;50.892;7.082;2022-11-15T13:41:49;14.40;99.90
3156;DHT22;1588;50.892;7.082;2022-11-15T13:47:03;14.50;99.90
3156;DHT22;1588;50.892;7.082;2022-11-15T13:52:11;14.40;99.90
3156;DHT22;1588;50.892;7.082;2022-11-15T13:57:21;14.40;99.90
3156;DHT22;1588;50.892;7.082;2022-11-15T14:02:26;14.30;99.90
3156;DHT22;1588;50.892;7.082;2022-11-15T14:07:40;14.30;99.90
3156;DHT22;1588;50.892;7.082;2022-11-15T14:13:29;14.30;99.90
3156;DHT22;1588;50.892;7.082;2022-11-15T14:18:45;14.30;99.90
3156;DHT22;1588;50.892;7.082;2022-11-15T14:23:51;14.20;99.90
3156;DHT22;1588;50.892;7.082;2022-11-15T14:29:26;14.10;99.90
3156;DHT22;1588;50.892;7.082;2022-11-15T14:34:45;14.10;99.90
3156;DHT22;1588;50.892;7.082;2022-11-15T14:39:48;14.10;99.90
3156;DHT22;1588;50.892;7.082;2022-11-15T14:44:58;14.10;99.90
3156;DHT22;1588;50.892;7.082;2022-11-15T14:50:06;14.00;99.90
3156;DHT22;1588;50.892;7.082;2022-11-15T14:55:22;14.00;99.90
3156;DHT22;1588;50.892;7.082;2022-11-15T15:00:36;14.00;99.90
3156;DHT22;1588;50.892;7.082;2022-11-15T15:05:52;14.00;99.90
3156;DHT22;1588;50.892;7.082;2022-11-15T15:11:08;14.00;99.90
3156;DHT22;1588;50.892;7.082;2022-11-15T15:21:56;13.80;99.90
3156;DHT22;1588;50.892;7.082;2022-11-15T15:27:17;13.70;99.90
3156;DHT22;1588;50.892;7.082;2022-11-15T15:58:13;13.70;99.90
3156;DHT22;1588;50.892;7.082;2022-11-15T16:03:16;13.60;99.90
3156;DHT22;1588;50.892;7.082;2022-11-15T16:08:20;13.60;99.90
3156;DHT22;1588;50.892;7.082;2022-11-15T16:13:27;13.70;99.90
3156;DHT22;1588;50.892;7.082;2022-11-15T16:18:34;13.70;99.90
3156;DHT22;1588;50.892;7.082;2022-11-15T16:23:37;13.70;99.90
3156;DHT22;1588;50.892;7.082;2022-11-15T16:28:44;13.70;99.90
3156;DHT22;1588;50.892;7.082;2022-11-15T16:33:47;13.70;99.90
3156;DHT22;1588;50.892;7.082;2022-11-15T16:38:49;13.70;99.90
3156;DHT22;1588;50.892;7.082;2022-11-15T16:43:53;13.70;99.90
3156;DHT22;1588;50.892;7.082;2022-11-15T16:48:59;13.60;99.90
3156;DHT22;1588;50.892;7.082;2022-11-15T16:54:10;13.60;99.90
3156;DHT22;1588;50.892;7.082;2022-11-15T16:59:26;13.60;99.90
3156;DHT22;1588;50.892;7.082;2022-11-15T17:04:32;13.60;99.90
3156;DHT22;1588;50.892;7.082;2022-11-15T17:09:35;13.60;99.90
3156;DHT22;1588;50.892;7.082;2022-11-15T17:14:39;13.60;99.90
3156;DHT22;1588;50.892;7.082;2022-11-15T17:19:47;13.60;99.90
3156;DHT22;1588;50.892;7.082;2022-11-15T17:24:57;13.50;99.90
3156;DHT22;1588;50.892;7.082;2022-11-15T17:30:01;13.60;99.90
3156;DHT22;1588;50.892;7.082;2022-11-15T17:35:14;13.50;99.90
3156;DHT22;1588;50.892;7.082;2022-11-15T17:40:17;13.60;99.90
3156;DHT22;1588;50.892;7.082;2022-11-15T17:45:20;13.50;99.90
3156;DHT22;1588;50.892;7.082;2022-11-15T17:50:23;13.50;99.90
3156;DHT22;1588;50.892;7.082;2022-11-15T17:55:35;13.40;99.90
3156;DHT22;1588;50.892;7.082;2022-11-15T18:00:39;13.40;99.90
3156;DHT22;1588;50.892;7.082;2022-11-15T18:05:42;13.20;99.90
3156;DHT22;1588;50.892;7.082;2022-11-15T18:10:45;13.00;99.90
3156;DHT22;1588;50.892;7.082;2022-11-15T18:15:52;12.80;99.90
3156;DHT22;1588;50.892;7.082;2022-11-15T18:21:04;12.70;99.90
3156;DHT22;1588;50.892;7.082;2022-11-15T18:26:08;12.50;99.90
3156;DHT22;1588;50.892;7.082;2022-11-15T18:31:17;12.50;99.90
3156;DHT22;1588;50.892;7.082;2022-11-15T18:36:22;12.30;99.90
3156;DHT22;1588;50.892;7.082;2022-11-15T18:41:31;12.20;99.90
3156;DHT22;1588;50.892;7.082;2022-11-15T18:46:38;12.10;99.90
3156;DHT22;1588;50.892;7.082;2022-11-15T18:51:41;12.10;99.90
3156;DHT22;1588;50.892;7.082;2022-11-15T18:56:46;12.00;99.90
3156;DHT22;1588;50.892;7.082;2022-11-15T19:01:50;12.00;99.90
3156;DHT22;1588;50.892;7.082;2022-11-15T19:06:53;12.00;99.90
3156;DHT22;1588;50.892;7.082;2022-11-15T19:11:55;12.00;99.90
3156;DHT22;1588;50.892;7.082;2022-11-15T19:17:01;12.00;99.90
3156;DHT22;1588;50.892;7.082;2022-11-15T19:22:03;11.90;99.90
3156;DHT22;1588;50.892;7.082;2022-11-15T19:27:09;11.80;99.90
3156;DHT22;1588;50.892;7.082;2022-11-15T19:32:16;11.80;99.90
3156;DHT22;1588;50.892;7.082;2022-11-15T19:37:18;11.80;99.90
3156;DHT22;1588;50.892;7.082;2022-11-15T19:42:20;11.80;99.90
3156;DHT22;1588;50.892;7.082;2022-11-15T19:47:24;11.70;99.90
3156;DHT22;1588;50.892;7.082;2022-11-15T19:52:28;11.70;99.90
3156;DHT22;1588;50.892;7.082;2022-11-15T19:57:30;11.70;99.90
3156;DHT22;1588;50.892;7.082;2022-11-15T20:02:34;11.70;99.90
3156;DHT22;1588;50.892;7.082;2022-11-15T20:07:37;11.70;99.90
3156;DHT22;1588;50.892;7.082;2022-11-15T20:12:39;11.70;99.90
3156;DHT22;1588;50.892;7.082;2022-11-15T20:17:43;11.70;99.90
3156;DHT22;1588;50.892;7.082;2022-11-15T20:22:46;11.70;99.90
3156;DHT22;1588;50.892;7.082;2022-11-15T20:27:52;11.70;99.90
3156;DHT22;1588;50.892;7.082;2022-11-15T20:32:56;11.70;99.90
3156;DHT22;1588;50.892;7.082;2022-11-15T20:37:59;11.70;99.90
3156;DHT22;1588;50.892;7.082;2022-11-15T20:43:17;11.70;99.90
3156;DHT22;1588;50.892;7.082;2022-11-15T20:48:36;11.70;99.90
3156;DHT22;1588;50.892;7.082;2022-11-15T20:53:39;11.70;99.90
3156;DHT22;1588;50.892;7.082;2022-11-15T20:58:46;11.60;99.90
3156;DHT22;1588;50.892;7.082;2022-11-15T21:03:52;11.60;99.90
3156;DHT22;1588;50.892;7.082;2022-11-15T21:08:55;11.60;99.90
3156;DHT22;1588;50.892;7.082;2022-11-15T21:14:17;11.70;99.90
3156;DHT22;1588;50.892;7.082;2022-11-15T21:19:22;11.60;99.90
3156;DHT22;1588;50.892;7.082;2022-11-15T21:24:27;11.60;99.90
3156;DHT22;1588;50.892;7.082;2022-11-15T21:29:30;11.60;99.90
3156;DHT22;1588;50.892;7.082;2022-11-15T21:34:42;11.50;99.90
3156;DHT22;1588;50.892;7.082;2022-11-15T21:39:48;11.50;99.90
3156;DHT22;1588;50.892;7.082;2022-11-15T21:44:52;11.50;99.90
3156;DHT22;1588;50.892;7.082;2022-11-15T21:49:56;11.50;99.90
3156;DHT22;1588;50.892;7.082;2022-11-15T21:54:58;11.50;99.90
3156;DHT22;1588;50.892;7.082;2022-11-15T22:00:01;11.50;99.90
3156;DHT22;1588;50.892;7.082;2022-11-15T22:05:34;11.50;99.90
3156;DHT22;1588;50.892;7.082;2022-11-15T22:10:37;11.50;99.90
3156;DHT22;1588;50.892;7.082;2022-11-15T22:15:39;11.50;99.90
3156;DHT22;1588;50.892;7.082;2022-11-15T22:20:51;11.50;99.90
3156;DHT22;1588;50.892;7.082;2022-11-15T22:25:54;11.50;99.90
3156;DHT22;1588;50.892;7.082;2022-11-15T22:30:59;11.50;99.90
3156;DHT22;1588;50.892;7.082;2022-11-15T22:36:04;11.50;99.90
3156;DHT22;1588;50.892;7.082;2022-11-15T22:41:07;11.50;99.90
3156;DHT22;1588;50.892;7.082;2022-11-15T22:46:10;11.50;99.90
3156;DHT22;1588;50.892;7.082;2022-11-15T22:51:15;11.50;99.90
3156;DHT22;1588;50.892;7.082;2022-11-15T22:56:18;11.50;99.90
3156;DHT22;1588;50.892;7.082;2022-11-15T23:01:23;11.50;99.90
3156;DHT22;1588;50.892;7.082;2022-11-15T23:06:28;11.40;99.90
3156;DHT22;1588;50.892;7.082;2022-11-15T23:11:31;11.50;99.90
3156;DHT22;1588;50.892;7.082;2022-11-15T23:16:50;11.40;99.90
3156;DHT22;1588;50.892;7.082;2022-11-15T23:21:54;11.40;99.90
3156;DHT22;1588;50.892;7.082;2022-11-15T23:27:14;11.30;99.90
3156;DHT22;1588;50.892;7.082;2022-11-15T23:32:19;11.40;99.90
3156;DHT22;1588;50.892;7.082;2022-11-15T23:37:45;11.40;99.90
3156;DHT22;1588;50.892;7.082;2022-11-15T23:42:48;11.40;99.90
3156;DHT22;1588;50.892;7.082;2022-11-15T23:47:50;11.40;99.90
3156;DHT22;1588;50.892;7.082;2022-11-15T23:52:54;11.40;99.90
3156;DHT22;1588;50.892;7.082;2022-11-15T23:57:57;11.40;99.90
